createdAt,value
2023-07-01T00:02:00.836Z,56.03
2023-07-01T00:04:29.528Z,55.87
2023-07-01T00:06:57.109Z,56.30
2023-07-01T00:09:25.707Z,55.93
2023-07-01T00:11:54.393Z,55.84
2023-07-01T00:14:21.326Z,55.92
2023-07-01T00:16:48.176Z,56.19
2023-07-01T00:19:15.203Z,56.04
2023-07-01T00:21:41.961Z,56.06
2023-07-01T00:24:08.822Z,56.48
2023-07-01T00:26:37.830Z,56.41
2023-07-01T00:29:04.529Z,56.42
2023-07-01T00:31:31.629Z,56.54
2023-07-01T00:33:58.467Z,56.51
2023-07-01T00:36:25.207Z,56.15
2023-07-01T00:38:51.876Z,56.46
2023-07-01T00:41:21.790Z,56.55
2023-07-01T00:43:48.932Z,56.18
2023-07-01T00:46:18.062Z,56.05
2023-07-01T00:48:46.412Z,55.98
2023-07-01T00:51:14.159Z,56.12
2023-07-01T00:53:41.963Z,56.19
2023-07-01T00:56:08.827Z,56.29
2023-07-01T00:58:35.896Z,56.19
2023-07-01T01:01:09.103Z,56.08
2023-07-01T01:03:50.084Z,56.41
2023-07-01T01:06:34.939Z,56.47
2023-07-01T01:09:16.017Z,56.88
2023-07-01T01:11:47.536Z,56.92
2023-07-01T01:14:16.730Z,56.97
2023-07-01T01:16:45.139Z,56.90
2023-07-01T01:19:40.622Z,57.74
2023-07-01T01:22:10.552Z,57.27
2023-07-01T01:24:41.789Z,57.27
2023-07-01T01:27:12.543Z,57.77
2023-07-01T01:29:39.349Z,57.60
2023-07-01T01:32:08.713Z,57.80
2023-07-01T01:34:35.675Z,58.22
2023-07-01T01:37:11.225Z,58.69
2023-07-01T01:39:46.579Z,58.95
2023-07-01T01:42:21.310Z,59.21
2023-07-01T01:44:53.908Z,59.15
2023-07-01T01:47:24.346Z,59.31
2023-07-01T01:49:56.680Z,59.63
2023-07-01T01:52:24.218Z,60.10
2023-07-01T01:54:56.341Z,60.02
2023-07-01T01:57:23.420Z,60.41
2023-07-01T01:59:50.201Z,60.62
2023-07-01T02:02:16.929Z,61.17
2023-07-01T02:04:43.836Z,61.35
2023-07-01T02:07:10.635Z,61.63
2023-07-01T02:09:37.839Z,61.79
2023-07-01T02:12:06.160Z,62.50
2023-07-01T02:14:33.038Z,62.32
2023-07-01T02:16:59.841Z,62.79
2023-07-01T02:19:28.851Z,63.46
2023-07-01T02:21:55.675Z,63.27
2023-07-01T02:24:22.525Z,63.57
2023-07-01T02:26:51.494Z,63.72
2023-07-01T02:29:18.357Z,64.34
2023-07-01T02:31:47.123Z,64.15
2023-07-01T02:34:13.948Z,64.79
2023-07-01T02:36:44.674Z,64.62
2023-07-01T02:39:11.500Z,64.79
2023-07-01T02:41:38.260Z,64.84
2023-07-01T02:44:05.198Z,65.38
2023-07-01T02:46:32.055Z,65.51
2023-07-01T02:48:59.258Z,65.03
2023-07-01T02:51:26.092Z,65.24
2023-07-01T02:53:52.814Z,65.24
2023-07-01T02:56:19.555Z,65.54
2023-07-01T02:58:46.448Z,65.21
2023-07-01T03:01:15.069Z,65.27
2023-07-01T03:03:42.489Z,65.21
2023-07-01T03:06:10.955Z,65.19
2023-07-01T03:08:37.711Z,65.66
2023-07-01T03:11:04.464Z,65.63
2023-07-01T03:13:31.909Z,65.63
2023-07-01T03:15:58.800Z,65.51
2023-07-01T03:18:25.647Z,65.68
2023-07-01T03:20:52.382Z,65.74
2023-07-01T03:23:19.120Z,65.63
2023-07-01T03:25:46.005Z,65.47
2023-07-01T03:28:12.766Z,65.76
2023-07-01T03:30:39.551Z,65.80
2023-07-01T03:33:07.646Z,65.73
2023-07-01T03:35:34.483Z,66.12
2023-07-01T03:38:01.169Z,65.82
2023-07-01T03:40:29.011Z,65.61
2023-07-01T03:42:55.868Z,66.02
2023-07-01T03:45:22.834Z,66.03
2023-07-01T03:47:50.202Z,66.08
2023-07-01T03:50:17.147Z,66.40
2023-07-01T03:52:44.142Z,66.10
2023-07-01T03:55:12.799Z,66.31
2023-07-01T03:57:39.586Z,66.30
2023-07-01T04:00:09.935Z,66.34
2023-07-01T04:02:37.870Z,66.39
2023-07-01T04:05:12.206Z,66.55
2023-07-01T04:07:40.738Z,66.71
2023-07-01T04:10:08.793Z,66.50
2023-07-01T04:12:36.734Z,66.46
2023-07-01T04:15:04.508Z,66.33
2023-07-01T04:17:31.306Z,66.63
2023-07-01T04:19:58.096Z,66.15
2023-07-01T04:22:25.175Z,66.44
2023-07-01T04:24:53.231Z,65.76
2023-07-01T04:27:19.914Z,65.84
2023-07-01T04:29:46.645Z,65.98
2023-07-01T04:32:13.441Z,65.75
2023-07-01T04:34:40.251Z,65.92
2023-07-01T04:37:06.969Z,65.83
2023-07-01T04:39:33.722Z,65.17
2023-07-01T04:42:00.439Z,65.49
2023-07-01T04:44:27.266Z,65.03
2023-07-01T04:46:54.035Z,64.87
2023-07-01T04:49:20.896Z,64.69
2023-07-01T04:51:47.622Z,64.57
2023-07-01T04:54:14.555Z,64.48
2023-07-01T04:56:41.330Z,64.44
2023-07-01T04:59:08.218Z,64.79
2023-07-01T05:01:35.095Z,64.99
2023-07-01T05:04:02.144Z,64.46
2023-07-01T05:06:29.297Z,64.45
2023-07-01T05:08:55.990Z,64.48
2023-07-01T05:11:22.749Z,64.30
2023-07-01T05:13:49.495Z,64.60
2023-07-01T05:16:16.269Z,64.53
2023-07-01T05:18:43.533Z,64.34
2023-07-01T05:21:10.566Z,64.06
2023-07-01T05:23:37.262Z,64.44
2023-07-01T05:26:03.989Z,64.08
2023-07-01T05:28:30.753Z,64.21
2023-07-01T05:30:57.521Z,64.33
2023-07-01T05:33:24.262Z,64.15
2023-07-01T05:35:51.023Z,64.04
2023-07-01T05:38:17.731Z,63.59
2023-07-01T05:40:44.769Z,63.60
2023-07-01T05:43:11.826Z,63.44
2023-07-01T05:45:38.581Z,63.25
2023-07-01T05:48:05.694Z,62.76
2023-07-01T05:50:32.526Z,63.11
2023-07-01T05:52:59.240Z,62.67
2023-07-01T05:55:25.968Z,62.50
2023-07-01T05:57:52.740Z,62.28
2023-07-01T06:00:19.606Z,62.34
2023-07-01T06:02:46.762Z,62.45
2023-07-01T06:05:13.541Z,62.30
2023-07-01T06:07:40.413Z,62.53
2023-07-01T06:10:07.548Z,62.16
2023-07-01T06:12:34.281Z,62.33
2023-07-01T06:15:00.972Z,62.16
2023-07-01T06:17:27.867Z,61.97
2023-07-01T06:19:54.937Z,61.96
2023-07-01T06:22:21.672Z,62.19
2023-07-01T06:24:48.487Z,62.12
2023-07-01T06:27:15.244Z,61.91
2023-07-01T06:29:42.040Z,62.05
2023-07-01T06:32:09.207Z,62.20
2023-07-01T06:34:36.066Z,62.24
2023-07-01T06:37:02.870Z,62.38
2023-07-01T06:39:29.641Z,62.40
2023-07-01T06:41:56.400Z,62.08
2023-07-01T06:44:23.164Z,62.26
2023-07-01T06:46:50.399Z,62.04
2023-07-01T06:49:17.187Z,62.15
2023-07-01T06:51:43.942Z,62.18
2023-07-01T06:54:12.199Z,62.37
2023-07-01T06:56:39.126Z,62.22
2023-07-01T06:59:05.883Z,62.52
2023-07-01T07:01:34.854Z,62.72
2023-07-01T07:04:01.672Z,62.71
2023-07-01T07:06:28.551Z,62.61
2023-07-01T07:08:55.293Z,62.69
2023-07-01T07:11:22.156Z,62.48
2023-07-01T07:13:48.862Z,62.62
2023-07-01T07:16:16.471Z,62.29
2023-07-01T07:18:44.325Z,62.24
2023-07-01T07:21:11.324Z,62.36
2023-07-01T07:23:38.096Z,62.45
2023-07-01T07:26:05.113Z,62.17
2023-07-01T07:28:31.972Z,61.92
2023-07-01T07:30:58.768Z,61.61
2023-07-01T07:33:25.784Z,61.75
2023-07-01T07:35:52.658Z,61.63
2023-07-01T07:38:19.384Z,61.27
2023-07-01T07:40:46.546Z,61.37
2023-07-01T07:43:13.740Z,61.08
2023-07-01T07:45:43.312Z,60.67
2023-07-01T07:48:09.990Z,60.94
2023-07-01T07:50:36.970Z,60.59
2023-07-01T07:53:04.512Z,60.68
2023-07-01T07:55:35.636Z,60.54
2023-07-01T07:58:03.118Z,60.36
2023-07-01T08:00:30.154Z,60.11
2023-07-01T08:02:57.084Z,60.10
2023-07-01T08:05:26.374Z,60.05
2023-07-01T08:07:53.541Z,59.87
2023-07-01T08:10:20.315Z,60.12
2023-07-01T08:12:47.287Z,59.76
2023-07-01T08:15:14.043Z,60.04
2023-07-01T08:17:41.401Z,59.85
2023-07-01T08:20:08.962Z,59.98
2023-07-01T08:22:35.774Z,59.73
2023-07-01T08:25:02.695Z,60.12
2023-07-01T08:27:29.444Z,59.84
2023-07-01T08:29:56.333Z,60.13
2023-07-01T08:32:23.154Z,59.81
2023-07-01T08:34:49.925Z,59.80
2023-07-01T08:37:16.654Z,59.52
2023-07-01T08:39:44.049Z,59.59
2023-07-01T08:42:17.398Z,59.24
2023-07-01T08:44:47.683Z,59.05
2023-07-01T08:47:17.198Z,59.03
2023-07-01T08:49:46.904Z,58.88
2023-07-01T08:52:15.058Z,58.76
2023-07-01T08:54:42.182Z,58.56
2023-07-01T08:57:10.542Z,58.63
2023-07-01T08:59:38.067Z,58.24
2023-07-01T09:02:05.102Z,57.85
2023-07-01T09:04:32.586Z,57.72
2023-07-01T09:06:59.444Z,57.79
2023-07-01T09:09:27.001Z,57.43
2023-07-01T09:11:53.873Z,57.27
2023-07-01T09:14:21.284Z,56.80
2023-07-01T09:16:48.478Z,56.71
2023-07-01T09:19:18.728Z,56.41
2023-07-01T09:21:45.688Z,55.96
2023-07-01T09:24:13.552Z,56.04
2023-07-01T09:26:41.210Z,55.66
2023-07-01T09:29:16.298Z,55.36
2023-07-01T09:31:52.382Z,55.34
2023-07-01T09:34:19.787Z,55.18
2023-07-01T09:36:46.908Z,54.80
2023-07-01T09:39:13.782Z,54.85
2023-07-01T09:41:41.610Z,54.73
2023-07-01T09:44:17.496Z,54.29
2023-07-01T09:46:48.180Z,54.95
2023-07-01T09:49:15.145Z,54.69
2023-07-01T09:51:51.666Z,54.50
2023-07-01T09:54:29.167Z,54.11
2023-07-01T09:57:05.139Z,53.75
2023-07-01T09:59:32.095Z,53.99
2023-07-01T10:02:03.155Z,54.08
2023-07-01T10:04:31.761Z,54.20
2023-07-01T10:06:59.084Z,53.46
2023-07-01T10:09:28.565Z,53.49
2023-07-01T10:11:58.481Z,53.14
2023-07-01T10:14:28.460Z,53.23
2023-07-01T10:16:55.699Z,52.66
2023-07-01T10:19:36.155Z,52.02
2023-07-01T10:22:25.769Z,52.10
2023-07-01T10:25:08.340Z,52.00
2023-07-01T10:27:44.834Z,51.61
2023-07-01T10:30:15.437Z,51.04
2023-07-01T10:32:42.784Z,51.03
2023-07-01T10:35:15.602Z,50.89
2023-07-01T10:37:43.492Z,51.37
2023-07-01T10:40:28.940Z,50.97
2023-07-01T10:43:38.060Z,51.32
2023-07-01T10:46:06.206Z,51.06
2023-07-01T10:48:33.165Z,51.01
2023-07-01T10:51:06.014Z,50.74
2023-07-01T10:53:57.254Z,49.85
2023-07-01T10:56:25.414Z,49.31
2023-07-01T10:59:22.462Z,47.93
2023-07-01T11:01:58.650Z,47.76
2023-07-01T11:04:47.506Z,47.57
2023-07-01T11:07:24.657Z,47.11
2023-07-01T11:10:30.153Z,46.68
2023-07-01T11:13:02.886Z,46.19
2023-07-01T11:15:30.123Z,46.28
2023-07-01T11:18:00.486Z,46.03
2023-07-01T11:20:27.599Z,45.90
2023-07-01T11:22:54.459Z,45.71
2023-07-01T11:25:22.197Z,45.09
2023-07-01T11:27:48.996Z,44.50
2023-07-01T11:30:30.327Z,43.66
2023-07-01T11:32:57.135Z,43.51
2023-07-01T11:35:23.913Z,43.60
2023-07-01T11:37:50.647Z,43.24
2023-07-01T11:40:17.393Z,43.19
2023-07-01T11:42:44.206Z,43.28
2023-07-01T11:45:11.326Z,43.25
2023-07-01T11:47:47.329Z,42.44
2023-07-01T11:50:14.123Z,42.29
2023-07-01T11:52:40.984Z,42.33
2023-07-01T11:55:08.153Z,41.62
2023-07-01T11:57:34.969Z,41.36
2023-07-01T12:00:03.540Z,40.93
2023-07-01T12:02:34.948Z,40.22
2023-07-01T12:05:03.044Z,40.26
2023-07-01T12:07:29.913Z,40.33
2023-07-01T12:09:57.159Z,40.15
2023-07-01T12:12:32.918Z,39.89
2023-07-01T12:15:04.284Z,39.21
2023-07-01T12:17:31.875Z,38.70
2023-07-01T12:20:02.758Z,38.76
2023-07-01T12:22:30.073Z,38.37
2023-07-01T12:25:02.479Z,38.35
2023-07-01T12:27:29.953Z,38.51
2023-07-01T12:29:57.629Z,38.63
2023-07-01T12:32:25.441Z,39.44
2023-07-01T12:34:53.443Z,39.57
2023-07-01T12:37:21.469Z,39.24
2023-07-01T12:39:58.078Z,40.02
2023-07-01T12:42:26.863Z,40.52
2023-07-01T12:44:53.712Z,40.44
2023-07-01T12:47:20.974Z,40.43
2023-07-01T12:49:48.017Z,40.76
2023-07-01T12:52:16.244Z,40.62
2023-07-01T12:54:43.014Z,40.75
2023-07-01T12:57:09.960Z,40.89
2023-07-01T12:59:38.172Z,40.82
2023-07-01T13:02:06.044Z,40.65
2023-07-01T13:04:32.951Z,41.58
2023-07-01T13:06:59.807Z,41.33
2023-07-01T13:09:55.840Z,40.76
2023-07-01T13:12:26.452Z,41.07
2023-07-01T13:14:58.366Z,41.61
2023-07-01T13:17:41.949Z,41.54
2023-07-01T13:20:09.731Z,41.66
2023-07-01T13:22:37.770Z,41.87
2023-07-01T13:25:05.488Z,42.04
2023-07-01T13:27:32.328Z,42.40
2023-07-01T13:29:59.091Z,42.28
2023-07-01T13:32:25.944Z,42.29
2023-07-01T13:34:53.958Z,42.34
2023-07-01T13:37:22.123Z,42.47
2023-07-01T13:39:49.952Z,42.45
2023-07-01T13:42:27.802Z,42.35
2023-07-01T13:44:56.981Z,42.15
2023-07-01T13:47:33.750Z,42.09
2023-07-01T13:50:00.684Z,41.95
2023-07-01T13:52:28.869Z,41.95
2023-07-01T13:54:57.022Z,41.93
2023-07-01T13:57:29.988Z,41.54
2023-07-01T13:59:56.822Z,41.13
2023-07-01T14:02:23.566Z,41.20
2023-07-01T14:04:51.967Z,40.81
2023-07-01T14:07:19.034Z,41.03
2023-07-01T14:09:45.960Z,41.14
2023-07-01T14:12:18.033Z,41.09
2023-07-01T14:14:47.561Z,40.94
2023-07-01T14:17:19.800Z,40.47
2023-07-01T14:19:57.393Z,41.08
2023-07-01T14:22:24.712Z,40.96
2023-07-01T14:24:53.058Z,40.52
2023-07-01T14:27:30.543Z,41.11
2023-07-01T14:29:57.345Z,41.00
2023-07-01T14:32:24.098Z,40.63
2023-07-01T14:34:53.208Z,40.60
2023-07-01T14:37:20.059Z,40.82
2023-07-01T14:39:55.430Z,40.68
2023-07-01T14:42:31.793Z,40.62
2023-07-01T14:44:59.407Z,40.59
2023-07-01T14:47:28.142Z,40.68
2023-07-01T14:49:55.015Z,40.76
2023-07-01T14:52:25.589Z,41.13
2023-07-01T14:54:52.748Z,40.97
2023-07-01T14:57:19.440Z,41.00
2023-07-01T14:59:46.657Z,41.06
2023-07-01T15:02:13.388Z,41.14
2023-07-01T15:04:40.328Z,40.95
2023-07-01T15:07:09.777Z,41.01
2023-07-01T15:09:37.493Z,41.12
2023-07-01T15:12:04.531Z,41.35
2023-07-01T15:14:31.291Z,41.07
2023-07-01T15:16:58.280Z,41.24
2023-07-01T15:19:25.888Z,41.47
2023-07-01T15:21:53.985Z,41.24
2023-07-01T15:24:20.762Z,41.43
2023-07-01T15:26:48.843Z,41.43
2023-07-01T15:29:15.666Z,41.60
2023-07-01T15:31:42.544Z,41.08
2023-07-01T15:34:09.393Z,40.87
2023-07-01T15:36:36.464Z,40.62
2023-07-01T15:39:04.107Z,40.71
2023-07-01T15:41:46.267Z,40.91
2023-07-01T15:44:14.369Z,40.97
2023-07-01T15:46:42.118Z,40.90
2023-07-01T15:49:09.610Z,40.86
2023-07-01T15:51:37.561Z,40.92
2023-07-01T15:54:04.368Z,41.01
2023-07-01T15:56:31.573Z,41.14
2023-07-01T15:58:58.326Z,40.85
2023-07-01T16:01:25.527Z,40.70
2023-07-01T16:03:53.239Z,40.78
2023-07-01T16:06:21.425Z,40.39
2023-07-01T16:08:52.893Z,40.72
2023-07-01T16:11:33.314Z,40.66
2023-07-01T16:14:05.050Z,40.95
2023-07-01T16:16:44.347Z,41.05
2023-07-01T16:19:15.710Z,41.03
2023-07-01T16:21:42.485Z,40.93
2023-07-01T16:24:43.894Z,41.41
2023-07-01T16:27:14.802Z,41.63
2023-07-01T16:29:41.583Z,41.63
2023-07-01T16:32:08.657Z,41.76
2023-07-01T16:34:39.110Z,41.83
2023-07-01T16:37:06.107Z,41.73
2023-07-01T16:39:39.609Z,41.56
2023-07-01T16:42:07.467Z,41.60
2023-07-01T16:44:36.914Z,41.48
2023-07-01T16:47:03.804Z,41.69
2023-07-01T16:49:30.660Z,42.02
2023-07-01T16:51:57.435Z,41.82
2023-07-01T16:54:29.988Z,41.68
2023-07-01T16:56:58.685Z,41.38
2023-07-01T16:59:57.541Z,42.07
2023-07-01T17:02:35.739Z,42.10
2023-07-01T17:05:12.171Z,42.29
2023-07-01T17:07:41.915Z,42.36
2023-07-01T17:10:30.739Z,42.61
2023-07-01T17:12:58.430Z,42.49
2023-07-01T17:15:32.295Z,42.82
2023-07-01T17:17:59.155Z,42.63
2023-07-01T17:20:25.957Z,42.68
2023-07-01T17:22:52.795Z,42.53
2023-07-01T17:25:19.626Z,42.79
2023-07-01T17:27:46.473Z,43.07
2023-07-01T17:30:14.644Z,43.12
2023-07-01T17:32:41.422Z,43.05
2023-07-01T17:35:24.729Z,43.31
2023-07-01T17:37:51.607Z,43.40
2023-07-01T17:40:22.172Z,43.77
2023-07-01T17:42:50.684Z,43.76
2023-07-01T17:45:18.487Z,43.93
2023-07-01T17:47:46.718Z,43.85
2023-07-01T17:50:20.581Z,44.19
2023-07-01T17:52:50.355Z,44.45
2023-07-01T17:55:19.837Z,44.34
2023-07-01T17:57:56.308Z,44.78
2023-07-01T18:00:24.044Z,44.72
2023-07-01T18:02:50.957Z,44.26
2023-07-01T18:05:18.101Z,44.65
2023-07-01T18:07:45.050Z,44.53
2023-07-01T18:10:12.747Z,44.86
2023-07-01T18:12:42.128Z,45.17
2023-07-01T18:15:14.992Z,45.53
2023-07-01T18:17:43.531Z,45.44
2023-07-01T18:20:11.139Z,45.40
2023-07-01T18:22:38.195Z,45.66
2023-07-01T18:25:05.684Z,45.84
2023-07-01T18:27:34.233Z,45.99
2023-07-01T18:30:01.247Z,46.18
2023-07-01T18:32:29.480Z,46.50
2023-07-01T18:34:57.036Z,46.25
2023-07-01T18:37:24.170Z,46.52
2023-07-01T18:39:51.862Z,46.59
2023-07-01T18:42:18.641Z,46.81
2023-07-01T18:44:45.350Z,47.47
2023-07-01T18:47:12.121Z,47.68
2023-07-01T18:49:41.244Z,48.07
2023-07-01T18:52:09.075Z,47.72
2023-07-01T18:54:35.842Z,48.44
2023-07-01T18:57:05.022Z,48.79
2023-07-01T18:59:33.202Z,48.74
2023-07-01T19:02:00.804Z,49.16
2023-07-01T19:04:29.790Z,48.75
2023-07-01T19:06:56.999Z,48.98
2023-07-01T19:09:23.866Z,49.29
2023-07-01T19:11:50.658Z,49.46
2023-07-01T19:14:17.425Z,49.72
2023-07-01T19:16:44.389Z,49.54
2023-07-01T19:19:18.989Z,50.53
2023-07-01T19:21:46.739Z,50.63
2023-07-01T19:24:25.712Z,51.36
2023-07-01T19:26:53.507Z,51.31
2023-07-01T19:29:27.196Z,52.24
2023-07-01T19:31:55.483Z,51.98
2023-07-01T19:34:22.259Z,52.42
2023-07-01T19:36:49.320Z,52.90
2023-07-01T19:39:16.173Z,52.94
2023-07-01T19:41:44.061Z,53.48
2023-07-01T19:44:10.899Z,53.76
2023-07-01T19:46:38.965Z,53.57
2023-07-01T19:49:06.376Z,53.78
2023-07-01T19:51:33.166Z,53.91
2023-07-01T19:53:59.889Z,53.99
2023-07-01T19:56:26.653Z,54.44
2023-07-01T19:58:53.495Z,54.03
2023-07-01T20:01:20.253Z,54.55
2023-07-01T20:03:47.031Z,54.71
2023-07-01T20:06:13.935Z,55.00
2023-07-01T20:08:41.639Z,55.37
2023-07-01T20:11:08.656Z,55.55
2023-07-01T20:13:36.928Z,55.61
2023-07-01T20:16:03.766Z,55.86
2023-07-01T20:18:34.086Z,56.12
2023-07-01T20:21:01.489Z,55.91
2023-07-01T20:23:28.284Z,56.24
2023-07-01T20:26:02.297Z,56.09
2023-07-01T20:28:31.702Z,56.26
2023-07-01T20:31:05.710Z,56.56
2023-07-01T20:33:42.552Z,56.35
2023-07-01T20:36:19.989Z,56.77
2023-07-01T20:38:49.665Z,57.05
2023-07-01T20:41:22.380Z,57.04
2023-07-01T20:44:01.294Z,57.24
2023-07-01T20:47:03.031Z,57.25
2023-07-01T20:49:29.858Z,57.08
2023-07-01T20:51:58.206Z,57.21
2023-07-01T20:54:25.029Z,57.38
2023-07-01T20:56:59.007Z,57.22
2023-07-01T20:59:31.812Z,57.51
2023-07-01T21:02:05.593Z,57.51
2023-07-01T21:04:32.646Z,57.42
2023-07-01T21:06:59.503Z,57.42
2023-07-01T21:09:26.380Z,57.36
2023-07-01T21:11:53.911Z,57.55
2023-07-01T21:14:21.339Z,57.51
2023-07-01T21:16:52.255Z,57.32
2023-07-01T21:19:19.179Z,57.75
2023-07-01T21:21:46.434Z,57.47
2023-07-01T21:24:14.645Z,57.56
2023-07-01T21:26:42.337Z,57.68
2023-07-01T21:29:19.072Z,57.56
2023-07-01T21:31:51.047Z,57.67
2023-07-01T21:34:20.513Z,57.61
2023-07-01T21:36:53.049Z,58.30
2023-07-01T21:39:23.487Z,58.56
2023-07-01T21:41:50.350Z,58.74
2023-07-01T21:44:18.419Z,58.58
2023-07-01T21:46:46.292Z,59.24
2023-07-01T21:49:13.267Z,59.20
2023-07-01T21:51:45.142Z,59.34
2023-07-01T21:54:15.355Z,59.52
2023-07-01T21:56:42.636Z,59.38
2023-07-01T21:59:09.597Z,59.56
2023-07-01T22:01:39.928Z,59.69
2023-07-01T22:04:08.421Z,59.39
2023-07-01T22:06:39.826Z,59.35
2023-07-01T22:09:07.048Z,59.73
2023-07-01T22:11:34.254Z,59.88
2023-07-01T22:14:01.327Z,59.82
2023-07-01T22:16:28.077Z,60.14
2023-07-01T22:18:55.758Z,60.17
2023-07-01T22:21:22.576Z,60.24
2023-07-01T22:23:49.348Z,60.36
2023-07-01T22:26:16.074Z,60.14
2023-07-01T22:28:42.922Z,60.48
2023-07-01T22:31:10.246Z,60.35
2023-07-01T22:33:37.222Z,60.40
2023-07-01T22:36:04.480Z,60.70
2023-07-01T22:38:32.088Z,60.82
2023-07-01T22:40:59.051Z,60.54
2023-07-01T22:43:26.229Z,60.73
2023-07-01T22:45:53.022Z,60.41
2023-07-01T22:48:19.878Z,60.32
2023-07-01T22:50:48.685Z,60.01
2023-07-01T22:53:15.916Z,59.80
2023-07-01T23:00:36.089Z,60.23
2023-07-01T23:03:02.988Z,59.76
2023-07-01T23:05:30.054Z,59.94
2023-07-01T23:07:57.006Z,59.62
2023-07-01T23:10:23.734Z,59.61
2023-07-01T23:12:50.525Z,59.73
2023-07-01T23:15:20.052Z,59.65
2023-07-01T23:17:47.402Z,59.94
2023-07-01T23:20:14.526Z,60.16
2023-07-01T23:22:42.776Z,59.92
2023-07-01T23:25:11.030Z,59.88
2023-07-01T23:27:44.777Z,59.88
2023-07-01T23:30:13.667Z,59.81
2023-07-01T23:32:41.692Z,59.70
2023-07-01T23:35:09.151Z,59.68
2023-07-01T23:37:36.054Z,59.61
2023-07-01T23:42:31.287Z,59.52
2023-07-01T23:44:58.103Z,59.19
2023-07-01T23:47:26.598Z,59.17
2023-07-01T23:49:53.615Z,58.84
2023-07-01T23:52:20.449Z,58.63
2023-07-01T23:54:47.146Z,58.57
2023-07-01T23:57:13.948Z,58.19
2023-07-01T23:59:40.676Z,57.99
